マヘ島 の空港の天気 - METARとTAF

セーシェル国際空港 ( FSIA / SEZ ) - セーシェル マヘ島
飛行場実況気象(Metar)
観測時間07/17 13:00 SCT (07/17 09:00 UTC)
風向・風速東南東 6m/s
視程10km以上
天気現象
全天の4割程度の雲 雲底高度 730m
気温28℃
湿度66%
気圧1013hPa
METARFSIA 170900Z 12011KT 080V140 9999 R13///// SCT024 28/21 Q1013 NOSIG
過去の天気等 Google飛行場航空写真 Wunderground天気予報

過去48時間のMETAR

飛行場予報(TAF)
発表時間: 7/17 09:02 SCT (7/17 05:02 UTC)
予報対象時間: 17日10時 SCT ~ 18日10時 SCT
風向・風速南 5m/s 瞬間風速 10m/s
視程10km以上
全天の4割程度の雲 雲底高度 670m
17日20時 SCT ~ 18日1時 SCT に 確率 40% で一時的に
天気現象弱いしゅう雨
全天の8割程度の雲 雲底高度 610m
TAF FSIA 170502Z 1706/1806 17010G20KT 9999 SCT022
PROB40 TEMPO 1716/1721 -SHRA BKN020